createdAt,value
2022-11-19T00:01:10.941Z,69.58
2022-11-19T00:03:38.697Z,70.16
2022-11-19T00:06:08.313Z,69.45
2022-11-19T00:08:34.874Z,72.43
2022-11-19T00:11:09.658Z,70.41
2022-11-19T00:13:37.969Z,72.43
2022-11-19T00:16:14.671Z,70.09
2022-11-19T00:18:41.640Z,68.50
2022-11-19T00:21:13.451Z,68.81
2022-11-19T00:23:40.771Z,71.47
2022-11-19T00:26:12.820Z,72.38
2022-11-19T00:28:40.014Z,74.06
2022-11-19T00:31:09.512Z,73.99
2022-11-19T00:33:37.634Z,72.92
2022-11-19T00:36:06.581Z,70.95
2022-11-19T00:38:33.014Z,69.72
2022-11-19T00:40:59.662Z,69.53
2022-11-19T00:43:44.668Z,72.94
2022-11-19T00:46:11.911Z,72.94
2022-11-19T00:48:39.212Z,72.19
2022-11-19T00:51:07.578Z,73.91
2022-11-19T00:53:34.716Z,72.86
2022-11-19T00:56:05.634Z,72.91
2022-11-19T00:58:32.421Z,74.25
2022-11-19T01:00:59.059Z,75.38
2022-11-19T01:03:25.797Z,74.95
2022-11-19T01:05:52.602Z,73.98
2022-11-19T01:08:19.157Z,76.49
2022-11-19T01:10:45.895Z,74.87
2022-11-19T01:13:30.823Z,73.79
2022-11-19T01:15:57.403Z,73.98
2022-11-19T01:18:24.140Z,75.20
2022-11-19T01:20:50.638Z,74.68
2022-11-19T01:23:17.108Z,75.19
2022-11-19T01:25:43.579Z,76.20
2022-11-19T01:28:10.055Z,76.05
2022-11-19T01:30:41.097Z,75.68
2022-11-19T01:33:08.007Z,75.81
2022-11-19T01:35:34.791Z,76.63
2022-11-19T01:38:02.563Z,76.81
2022-11-19T01:40:29.179Z,76.74
2022-11-19T01:42:55.729Z,74.14
2022-11-19T01:45:31.559Z,76.15
2022-11-19T01:48:23.101Z,76.05
2022-11-19T01:51:08.501Z,76.74
2022-11-19T01:53:36.544Z,77.05
2022-11-19T01:56:05.454Z,77.19
2022-11-19T01:58:36.856Z,76.51
2022-11-19T02:01:03.965Z,76.28
2022-11-19T02:03:31.793Z,76.29
2022-11-19T02:06:01.332Z,75.16
2022-11-19T02:08:50.472Z,74.68
2022-11-19T02:11:25.861Z,75.52
2022-11-19T02:14:13.597Z,75.87
2022-11-19T02:16:56.133Z,76.55
2022-11-19T02:19:37.273Z,75.43
2022-11-19T02:22:23.839Z,76.85
2022-11-19T02:24:55.736Z,76.29
2022-11-19T02:27:40.890Z,75.37
2022-11-19T02:30:09.861Z,76.20
2022-11-19T02:32:49.230Z,76.41
2022-11-19T02:35:41.754Z,75.88
2022-11-19T02:38:38.895Z,76.79
2022-11-19T02:41:36.754Z,76.12
2022-11-19T02:44:34.514Z,76.59
2022-11-19T02:47:05.196Z,76.50
2022-11-19T02:49:33.840Z,75.47
2022-11-19T02:52:00.993Z,76.29
2022-11-19T02:54:27.899Z,76.52
2022-11-19T02:56:58.850Z,77.53
2022-11-19T03:00:12.038Z,76.42
2022-11-19T03:03:26.832Z,75.00
2022-11-19T03:06:00.377Z,76.15
2022-11-19T03:08:27.524Z,75.65
2022-11-19T03:11:24.022Z,77.59
2022-11-19T03:14:45.313Z,77.35
2022-11-19T03:17:32.166Z,78.41
2022-11-19T03:20:19.829Z,79.10
2022-11-19T03:22:58.099Z,78.45
2022-11-19T03:25:34.809Z,76.17
2022-11-19T03:28:07.507Z,75.83
2022-11-19T03:30:34.431Z,76.76
2022-11-19T03:33:06.884Z,77.03
2022-11-19T03:35:41.880Z,78.47
2022-11-19T03:38:13.332Z,78.61
2022-11-19T03:40:42.064Z,78.17
2022-11-19T03:43:13.228Z,77.91
2022-11-19T03:45:44.354Z,78.82
2022-11-19T03:48:14.255Z,78.00
2022-11-19T03:50:57.633Z,77.98
2022-11-19T03:53:24.849Z,76.95
2022-11-19T03:55:59.715Z,77.51
2022-11-19T03:58:27.351Z,78.25
2022-11-19T04:00:54.066Z,77.97
2022-11-19T04:03:20.571Z,77.12
2022-11-19T04:05:47.331Z,78.06
2022-11-19T04:08:13.893Z,78.33
2022-11-19T04:10:40.313Z,77.78
2022-11-19T04:13:06.780Z,78.81
2022-11-19T04:15:33.298Z,76.76
2022-11-19T04:17:59.710Z,77.40
2022-11-19T04:20:26.148Z,77.52
2022-11-19T04:22:52.600Z,77.74
2022-11-19T04:25:19.140Z,77.31
2022-11-19T04:27:46.780Z,75.63
2022-11-19T04:30:14.476Z,73.35
2022-11-19T04:32:41.775Z,72.80
2022-11-19T04:35:08.745Z,74.35
2022-11-19T04:37:35.373Z,74.42
2022-11-19T04:40:02.020Z,74.75
2022-11-19T04:42:28.465Z,75.08
2022-11-19T04:44:54.909Z,73.97
2022-11-19T04:47:21.359Z,74.57
2022-11-19T04:49:47.775Z,75.55
2022-11-19T04:52:14.208Z,74.26
2022-11-19T04:54:40.655Z,75.81
2022-11-19T04:57:07.115Z,76.89
2022-11-19T04:59:33.580Z,77.65
2022-11-19T05:02:00.099Z,75.92
2022-11-19T05:04:26.574Z,75.25
2022-11-19T05:06:53.022Z,72.76
2022-11-19T05:09:19.581Z,71.54
2022-11-19T05:11:46.195Z,70.95
2022-11-19T05:14:12.636Z,70.12
2022-11-19T05:16:39.071Z,70.69
2022-11-19T05:19:05.607Z,69.66
2022-11-19T05:21:32.022Z,70.06
2022-11-19T05:23:58.444Z,69.27
2022-11-19T05:26:24.874Z,69.66
2022-11-19T05:28:51.299Z,69.50
2022-11-19T05:31:17.747Z,69.05
2022-11-19T05:33:44.230Z,70.12
2022-11-19T05:36:10.667Z,71.75
2022-11-19T05:38:37.450Z,72.50
2022-11-19T05:41:04.086Z,73.71
2022-11-19T05:43:30.629Z,76.62
2022-11-19T05:46:00.588Z,77.51
2022-11-19T05:48:27.034Z,76.55
2022-11-19T05:50:53.417Z,75.16
2022-11-19T05:53:19.863Z,75.46
2022-11-19T05:55:46.770Z,75.60
2022-11-19T05:58:13.797Z,77.30
2022-11-19T06:00:40.463Z,75.92
2022-11-19T06:03:07.063Z,75.55
2022-11-19T06:05:38.735Z,75.52
2022-11-19T06:08:06.779Z,76.24
2022-11-19T06:10:33.251Z,75.79
2022-11-19T06:12:59.650Z,76.43
2022-11-19T06:15:26.134Z,76.87
2022-11-19T06:17:52.541Z,76.66
2022-11-19T06:20:19.094Z,74.67
2022-11-19T06:22:45.555Z,76.55
2022-11-19T06:25:12.012Z,75.50
2022-11-19T06:27:38.425Z,75.71
2022-11-19T06:30:06.685Z,73.58
2022-11-19T06:32:33.116Z,71.61
2022-11-19T06:34:59.523Z,72.24
2022-11-19T06:37:26.048Z,70.56
2022-11-19T06:39:52.556Z,69.85
2022-11-19T06:42:37.172Z,70.30
2022-11-19T06:45:09.687Z,69.88
2022-11-19T06:47:36.995Z,69.46
2022-11-19T06:50:04.277Z,69.21
2022-11-19T06:52:30.979Z,69.67
2022-11-19T06:54:57.423Z,70.36
2022-11-19T06:57:24.513Z,71.99
2022-11-19T06:59:51.121Z,69.88
2022-11-19T07:02:21.276Z,69.52
2022-11-19T07:04:48.090Z,69.62
2022-11-19T07:07:14.610Z,69.50
2022-11-19T07:09:41.106Z,70.28
2022-11-19T07:12:08.186Z,71.20
2022-11-19T07:14:35.655Z,71.57
2022-11-19T07:17:02.112Z,70.37
2022-11-19T07:19:28.505Z,69.86
2022-11-19T07:21:55.287Z,69.91
2022-11-19T07:24:22.070Z,70.68
2022-11-19T07:26:48.543Z,70.11
2022-11-19T07:29:15.579Z,71.19
2022-11-19T07:31:42.121Z,69.79
2022-11-19T07:34:11.473Z,68.52
2022-11-19T07:36:38.251Z,68.96
2022-11-19T07:39:05.890Z,69.83
2022-11-19T07:41:51.545Z,68.68
2022-11-19T07:44:18.534Z,67.61
2022-11-19T07:46:45.053Z,66.24
2022-11-19T07:49:11.573Z,67.24
2022-11-19T07:51:38.040Z,65.49
2022-11-19T07:54:04.841Z,64.14
2022-11-19T07:56:31.350Z,62.52
2022-11-19T07:59:00.417Z,62.10
2022-11-19T08:01:27.151Z,64.79
2022-11-19T08:03:56.565Z,61.44
2022-11-19T08:06:26.007Z,57.66
2022-11-19T08:08:52.532Z,53.67
2022-11-19T08:11:19.331Z,52.72
2022-11-19T08:13:45.844Z,50.77
2022-11-19T08:16:38.417Z,47.75
2022-11-19T08:19:10.434Z,48.34
2022-11-19T08:21:40.792Z,49.57
2022-11-19T08:24:08.441Z,51.61
2022-11-19T08:26:34.925Z,51.14
2022-11-19T08:29:01.609Z,49.52
2022-11-19T08:31:28.420Z,46.41
2022-11-19T08:33:55.179Z,43.46
2022-11-19T08:36:21.940Z,44.78
2022-11-19T08:38:48.741Z,46.81
2022-11-19T08:41:33.834Z,47.48
2022-11-19T08:44:03.986Z,47.64
2022-11-19T08:46:33.157Z,49.38
2022-11-19T08:48:59.683Z,47.86
2022-11-19T08:51:54.026Z,45.05
2022-11-19T08:54:26.548Z,42.28
2022-11-19T08:56:53.312Z,43.69
2022-11-19T08:59:21.802Z,40.70
2022-11-19T09:01:51.297Z,38.69
2022-11-19T09:04:18.042Z,36.09
2022-11-19T09:06:44.802Z,36.49
2022-11-19T09:09:11.769Z,39.58
2022-11-19T09:11:42.364Z,38.91
2022-11-19T09:14:09.233Z,38.66
2022-11-19T09:16:35.706Z,37.14
2022-11-19T09:19:02.203Z,35.16
2022-11-19T09:21:28.633Z,37.88
2022-11-19T09:23:55.025Z,36.22
2022-11-19T09:26:21.502Z,38.44
2022-11-19T09:28:49.305Z,36.44
2022-11-19T09:31:18.145Z,36.66
2022-11-19T09:33:49.887Z,37.00
2022-11-19T09:36:18.267Z,35.29
2022-11-19T09:38:45.144Z,35.39
2022-11-19T09:41:17.541Z,40.67
2022-11-19T09:44:02.475Z,40.14
2022-11-19T09:46:38.185Z,41.63
2022-11-19T09:49:11.051Z,41.38
2022-11-19T09:51:40.696Z,41.24
2022-11-19T09:54:14.870Z,41.63
2022-11-19T09:56:48.104Z,44.52
2022-11-19T09:59:28.498Z,44.97
2022-11-19T10:01:55.431Z,47.17
2022-11-19T10:04:24.671Z,47.96
2022-11-19T10:07:24.137Z,45.89
2022-11-19T10:09:50.541Z,47.33
2022-11-19T10:12:46.248Z,48.67
2022-11-19T10:15:24.071Z,51.05
2022-11-19T10:18:21.433Z,51.06
2022-11-19T10:21:06.480Z,52.79
2022-11-19T10:23:54.619Z,51.41
2022-11-19T10:26:33.893Z,52.63
2022-11-19T10:29:03.754Z,52.76
2022-11-19T10:31:35.961Z,51.76
2022-11-19T10:34:23.325Z,53.58
2022-11-19T10:37:01.785Z,52.77
2022-11-19T10:39:39.928Z,53.98
2022-11-19T10:42:35.555Z,53.08
2022-11-19T10:45:14.961Z,52.78
2022-11-19T10:48:08.905Z,53.43
2022-11-19T10:50:36.338Z,52.98
2022-11-19T10:53:24.178Z,52.89
2022-11-19T10:55:55.118Z,51.82
2022-11-19T10:58:21.543Z,52.02
2022-11-19T11:00:48.686Z,52.82
2022-11-19T11:03:33.522Z,51.62
2022-11-19T11:06:05.107Z,52.58
2022-11-19T11:08:32.444Z,52.23
2022-11-19T11:10:59.541Z,50.52
2022-11-19T11:13:59.370Z,49.68
2022-11-19T11:16:43.890Z,50.23
2022-11-19T11:19:17.651Z,50.22
2022-11-19T11:21:45.465Z,49.36
2022-11-19T11:24:13.742Z,50.48
2022-11-19T11:26:40.728Z,51.68
2022-11-19T11:29:26.258Z,51.57
2022-11-19T11:31:53.795Z,52.13
2022-11-19T11:34:37.974Z,52.13
2022-11-19T11:37:06.787Z,53.74
2022-11-19T11:39:39.385Z,52.56
2022-11-19T11:42:16.285Z,50.40
2022-11-19T11:44:59.263Z,50.50
2022-11-19T11:47:39.550Z,49.98
2022-11-19T11:50:17.232Z,51.42
2022-11-19T11:52:46.661Z,52.35
2022-11-19T11:55:23.581Z,50.84
2022-11-19T11:57:56.987Z,51.72
2022-11-19T12:00:39.818Z,52.96
2022-11-19T12:03:07.576Z,51.40
2022-11-19T12:05:44.097Z,51.60
2022-11-19T12:08:16.574Z,52.19
2022-11-19T12:10:58.204Z,50.86
2022-11-19T12:13:40.447Z,52.37
2022-11-19T12:16:42.068Z,51.43
2022-11-19T12:19:17.910Z,50.64
2022-11-19T12:21:59.495Z,51.76
2022-11-19T12:24:31.916Z,52.00
2022-11-19T12:27:07.773Z,52.42
2022-11-19T12:29:42.008Z,51.11
2022-11-19T12:32:21.188Z,53.13
2022-11-19T12:34:53.627Z,53.25
2022-11-19T12:37:41.691Z,52.13
2022-11-19T12:40:40.905Z,53.71
2022-11-19T12:43:32.432Z,50.12
2022-11-19T12:46:15.270Z,50.18
2022-11-19T12:49:02.413Z,51.87
2022-11-19T12:52:03.928Z,51.62
2022-11-19T12:54:59.582Z,50.51
2022-11-19T12:57:56.555Z,51.48
2022-11-19T13:00:28.586Z,51.05
2022-11-19T13:03:23.861Z,50.23
2022-11-19T13:05:50.230Z,49.95
2022-11-19T13:08:35.168Z,49.22
2022-11-19T13:11:24.017Z,51.11
2022-11-19T13:14:03.228Z,51.24
2022-11-19T13:16:33.256Z,51.47
2022-11-19T13:19:31.799Z,51.57
2022-11-19T13:22:20.468Z,53.01
2022-11-19T13:24:53.120Z,50.97
2022-11-19T13:27:23.710Z,51.98
2022-11-19T13:29:55.866Z,50.74
2022-11-19T13:32:34.786Z,50.80
2022-11-19T13:35:13.341Z,51.40
2022-11-19T13:37:55.344Z,50.98
2022-11-19T13:40:45.124Z,50.18
2022-11-19T13:43:35.429Z,50.11
2022-11-19T13:46:10.743Z,50.19
2022-11-19T13:48:59.496Z,48.93
2022-11-19T13:51:29.107Z,49.63
2022-11-19T13:54:02.638Z,50.35
2022-11-19T13:56:40.395Z,50.43
2022-11-19T13:59:07.848Z,49.90
2022-11-19T14:01:58.902Z,51.29
2022-11-19T14:04:49.619Z,52.36
2022-11-19T14:07:31.539Z,53.98
2022-11-19T14:10:15.156Z,52.61
2022-11-19T14:12:47.522Z,51.65
2022-11-19T14:15:44.739Z,51.82
2022-11-19T14:18:42.228Z,51.22
2022-11-19T14:21:45.352Z,51.64
2022-11-19T14:24:42.500Z,51.27
2022-11-19T14:27:31.900Z,51.51
2022-11-19T14:30:04.130Z,52.33
2022-11-19T14:32:40.665Z,51.21
2022-11-19T14:35:21.630Z,51.00
2022-11-19T14:37:57.891Z,51.42
2022-11-19T14:40:30.560Z,50.87
2022-11-19T14:43:18.403Z,51.41
2022-11-19T14:46:03.342Z,51.36
2022-11-19T14:48:51.819Z,51.49
2022-11-19T14:51:29.297Z,51.46
2022-11-19T14:54:31.600Z,51.71
2022-11-19T14:57:08.883Z,51.18
2022-11-19T14:59:38.053Z,51.29
2022-11-19T15:02:28.690Z,51.09
2022-11-19T15:05:27.964Z,52.00
2022-11-19T15:08:19.092Z,52.39
2022-11-19T15:11:06.946Z,51.73
2022-11-19T15:13:57.677Z,51.10
2022-11-19T15:16:27.541Z,50.34
2022-11-19T15:19:07.837Z,50.71
2022-11-19T15:21:50.408Z,51.13
2022-11-19T15:24:51.277Z,51.29
2022-11-19T15:27:59.165Z,52.26
2022-11-19T15:30:46.544Z,54.38
2022-11-19T15:33:25.060Z,53.55
2022-11-19T15:36:30.802Z,54.10
2022-11-19T15:39:02.386Z,53.70
2022-11-19T15:41:35.102Z,54.41
2022-11-19T15:44:07.349Z,54.41
2022-11-19T15:46:34.552Z,54.11
2022-11-19T15:49:09.978Z,55.05
2022-11-19T15:51:50.815Z,55.37
2022-11-19T15:54:17.263Z,54.93
2022-11-19T15:56:49.060Z,55.33
2022-11-19T15:59:19.103Z,55.14
2022-11-19T16:01:59.365Z,56.04
2022-11-19T16:04:32.165Z,55.57
2022-11-19T16:06:58.752Z,55.51
2022-11-19T16:09:25.751Z,56.23
2022-11-19T16:12:11.211Z,55.77
2022-11-19T16:14:56.036Z,56.08
2022-11-19T16:17:43.125Z,55.72
2022-11-19T16:20:10.094Z,56.45
2022-11-19T16:22:43.672Z,57.06
2022-11-19T16:25:35.445Z,57.93
2022-11-19T16:28:06.373Z,58.06
2022-11-19T16:30:41.687Z,58.00
2022-11-19T16:33:14.874Z,58.01
2022-11-19T16:35:41.321Z,57.73
2022-11-19T16:38:15.431Z,58.02
2022-11-19T16:41:01.439Z,57.46
2022-11-19T16:43:28.170Z,58.24
2022-11-19T16:45:54.978Z,59.18
2022-11-19T16:48:43.643Z,59.89
2022-11-19T16:51:34.531Z,60.46
2022-11-19T16:54:02.035Z,59.20
2022-11-19T16:56:35.343Z,59.46
2022-11-19T16:59:03.929Z,60.02
2022-11-19T17:01:31.440Z,60.06
2022-11-19T17:04:03.806Z,60.04
2022-11-19T17:06:33.185Z,59.73
2022-11-19T17:09:01.319Z,60.14
2022-11-19T17:12:08.384Z,60.11
2022-11-19T17:14:34.761Z,59.87
2022-11-19T17:17:02.454Z,60.03
2022-11-19T17:19:33.042Z,60.76
2022-11-19T17:22:07.335Z,61.66
2022-11-19T17:24:43.045Z,61.34
2022-11-19T17:27:23.327Z,61.31
2022-11-19T17:29:50.091Z,60.97
2022-11-19T17:32:16.569Z,61.75
2022-11-19T17:34:46.262Z,61.22
2022-11-19T17:37:12.723Z,61.59
2022-11-19T17:39:39.111Z,61.31
2022-11-19T17:42:24.271Z,61.79
2022-11-19T17:44:50.833Z,61.33
2022-11-19T17:47:23.506Z,61.99
2022-11-19T17:49:51.384Z,61.66
2022-11-19T17:52:25.308Z,62.23
2022-11-19T17:54:53.727Z,62.76
2022-11-19T17:57:20.236Z,63.46
2022-11-19T17:59:46.614Z,62.88
2022-11-19T18:02:18.248Z,62.42
2022-11-19T18:04:45.726Z,62.20
2022-11-19T18:07:12.837Z,62.39
2022-11-19T18:09:40.479Z,62.21
2022-11-19T18:12:12.466Z,62.54
2022-11-19T18:14:38.879Z,62.31
2022-11-19T18:17:05.354Z,62.48
2022-11-19T18:19:31.751Z,62.36
2022-11-19T18:21:58.233Z,62.57
2022-11-19T18:24:24.697Z,62.68
2022-11-19T18:26:51.131Z,62.80
2022-11-19T18:29:17.642Z,62.66
2022-11-19T18:31:48.570Z,62.44
2022-11-19T18:34:21.124Z,63.22
2022-11-19T18:36:47.715Z,63.03
2022-11-19T18:39:14.226Z,62.36
2022-11-19T18:41:41.344Z,62.80
2022-11-19T18:44:31.622Z,62.84
2022-11-19T18:46:58.142Z,63.25
2022-11-19T18:49:24.703Z,62.71
2022-11-19T18:51:52.174Z,63.63
2022-11-19T18:54:18.664Z,63.28
2022-11-19T18:56:45.273Z,63.37
2022-11-19T18:59:12.463Z,63.28
2022-11-19T19:01:39.858Z,63.44
2022-11-19T19:04:08.484Z,63.30
2022-11-19T19:06:35.416Z,63.12
2022-11-19T19:09:02.086Z,63.29
2022-11-19T19:11:47.097Z,63.16
2022-11-19T19:14:13.557Z,63.62
2022-11-19T19:16:40.026Z,63.91
2022-11-19T19:19:06.572Z,63.72
2022-11-19T19:21:33.880Z,64.02
2022-11-19T19:24:00.301Z,64.33
2022-11-19T19:26:26.819Z,64.70
2022-11-19T19:28:55.125Z,64.15
2022-11-19T19:31:23.051Z,65.05
2022-11-19T19:33:50.159Z,65.36
2022-11-19T19:36:18.025Z,65.19
2022-11-19T19:38:44.776Z,64.50
2022-11-19T19:41:17.586Z,65.09
2022-11-19T19:43:44.157Z,64.68
2022-11-19T19:46:16.133Z,64.76
2022-11-19T19:48:50.169Z,64.55
2022-11-19T19:51:17.131Z,64.71
2022-11-19T19:53:44.062Z,64.68
2022-11-19T19:56:14.741Z,65.70
2022-11-19T19:58:45.598Z,64.98
2022-11-19T20:01:21.209Z,64.58
2022-11-19T20:03:54.095Z,64.81
2022-11-19T20:06:23.494Z,64.98
2022-11-19T20:08:50.596Z,65.19
2022-11-19T20:11:19.593Z,64.85
2022-11-19T20:13:46.293Z,64.72
2022-11-19T20:16:18.167Z,65.39
2022-11-19T20:18:46.767Z,65.44
2022-11-19T20:21:18.504Z,65.32
2022-11-19T20:23:46.638Z,65.11
2022-11-19T20:26:16.911Z,64.95
2022-11-19T20:28:44.102Z,64.63
2022-11-19T20:31:13.969Z,65.08
2022-11-19T20:33:42.204Z,65.05
2022-11-19T20:36:10.558Z,65.33
2022-11-19T20:38:38.630Z,65.13
2022-11-19T20:41:07.294Z,65.54
2022-11-19T20:43:53.357Z,65.31
2022-11-19T20:46:21.416Z,65.19
2022-11-19T20:48:48.737Z,65.27
2022-11-19T20:51:16.287Z,65.42
2022-11-19T20:53:43.352Z,65.78
2022-11-19T20:56:09.968Z,65.81
2022-11-19T20:58:36.416Z,65.44
2022-11-19T21:01:10.115Z,65.30
2022-11-19T21:03:37.410Z,65.67
2022-11-19T21:06:06.598Z,65.30
2022-11-19T21:08:34.386Z,65.45
2022-11-19T21:11:06.847Z,66.08
2022-11-19T21:13:33.267Z,65.48
2022-11-19T21:15:59.829Z,66.10
2022-11-19T21:18:26.818Z,65.82
2022-11-19T21:21:01.516Z,65.69
2022-11-19T21:23:28.946Z,65.94
2022-11-19T21:26:03.700Z,65.36
2022-11-19T21:28:31.296Z,65.14
2022-11-19T21:30:58.073Z,65.37
2022-11-19T21:33:27.784Z,64.82
2022-11-19T21:35:55.498Z,64.91
2022-11-19T21:38:22.898Z,64.89
2022-11-19T21:40:54.391Z,64.57
2022-11-19T21:43:22.170Z,64.89
2022-11-19T21:45:49.044Z,65.33
2022-11-19T21:48:16.156Z,65.52
2022-11-19T21:50:42.613Z,65.50
2022-11-19T21:53:10.577Z,65.06
2022-11-19T21:55:37.306Z,65.49
2022-11-19T21:58:05.012Z,65.88
2022-11-19T22:00:32.396Z,65.33
2022-11-19T22:02:59.652Z,65.71
2022-11-19T22:05:27.587Z,65.67
2022-11-19T22:07:54.536Z,66.42
2022-11-19T22:10:21.079Z,66.02
2022-11-19T22:12:47.510Z,67.02
2022-11-19T22:15:13.940Z,66.14
2022-11-19T22:17:40.706Z,66.63
2022-11-19T22:20:07.604Z,66.31
2022-11-19T22:22:34.319Z,66.84
2022-11-19T22:25:00.823Z,66.57
2022-11-19T22:27:30.473Z,66.40
2022-11-19T22:29:57.096Z,66.56
2022-11-19T22:32:24.184Z,66.35
2022-11-19T22:34:50.619Z,66.31
2022-11-19T22:37:17.059Z,66.47
2022-11-19T22:39:43.895Z,66.27
2022-11-19T22:42:10.338Z,66.19
2022-11-19T22:44:36.776Z,66.21
2022-11-19T22:47:03.276Z,66.11
2022-11-19T22:49:29.815Z,66.45
2022-11-19T22:51:56.274Z,66.28
2022-11-19T22:54:22.736Z,66.45
2022-11-19T22:56:49.171Z,67.00
2022-11-19T22:59:15.652Z,66.21
2022-11-19T23:01:42.107Z,67.15
2022-11-19T23:04:08.866Z,66.47
2022-11-19T23:06:36.711Z,66.71
2022-11-19T23:09:04.500Z,66.75
2022-11-19T23:11:49.844Z,66.30
2022-11-19T23:14:18.188Z,66.86
2022-11-19T23:16:45.189Z,66.76
2022-11-19T23:19:13.364Z,66.92
2022-11-19T23:21:40.698Z,67.55
2022-11-19T23:24:07.432Z,68.24
2022-11-19T23:26:34.499Z,68.11
2022-11-19T23:29:01.000Z,67.86
2022-11-19T23:31:30.467Z,67.97
2022-11-19T23:33:59.264Z,68.06
2022-11-19T23:36:31.772Z,67.43
2022-11-19T23:38:59.757Z,67.61
2022-11-19T23:41:26.816Z,67.83
2022-11-19T23:43:54.769Z,67.26
2022-11-19T23:46:26.023Z,67.35
2022-11-19T23:48:54.587Z,67.14
2022-11-19T23:51:24.153Z,66.67
2022-11-19T23:53:50.992Z,66.60
2022-11-19T23:56:18.907Z,66.85
2022-11-19T23:58:45.678Z,66.96
